Skip Navigation Links
NOAA logo - Click to go to the NOAA homepage
NOAA's National Weather Service
Alaska Aviation Weather Unit
  NWS logo - Click to go to the NWS homepage
Left Navbar Graphic     19 AKDT = 03 GMT

   
NOAA is celebrating 200 years of science, service, and stewardship. Visit the NOAA 200th celebration Web site to learn more.
USA.gov is the U.S. Government's official Web portal to all Federal, state and local government Web resources and services.
Facebook
NWS on Facebook

Important Change Regarding the AAWU Web Presence

 

Over the last several months, the AAWU has been working to navigate its webpages to a nationally supported server. Security, as well as other needs, have necessitated the change.  We have been given an extension for the site changeover while we diligently work at addressing feedback received. As of July 14, 2017, aawu.arh.noaa.gov will be discontinued. The new AAWU web address is weather.gov/aawu. It is now live and will run in-parallel with the old site until it is discontinued on July 14, 2017. Please continue to send any feedback or questions regarding the new webpages to nws.ar.aawu.webauthors@noaa.gov.  Thank you for your patience during this time of transition.
AAWU Home :: Display TAF Add Bookmark
METAR PAGL 282116Z AUTO 17018G22KT 5SM FEW008 BKN012 OVC023 12/07
 A2970 RMK AO1=

METAR PAGL 282136Z AUTO 19018KT 6SM FEW011 BKN020 OVC030 11/07 A2972 RMK
     AO1=

METAR PAGL 282156Z AUTO 18015KT 8SM FEW009 SCT017 BKN027 11/06 A2973 RMK
     AO1=

METAR PAGL 282216Z AUTO 18015KT 10SM FEW009 BKN020 OVC044 12/06 A2973
     RMK AO1=

METAR PAGL 282236Z AUTO 18014KT 10SM SCT022 BKN034 OVC060 12/06 A2974
     RMK AO1=

METAR PAGL 282256Z AUTO 17012KT 10SM FEW012 BKN021 OVC070 11/06 A2975
     RMK AO1 P0001=

METAR PAGL 282316Z AUTO 16009KT 10SM FEW019 SCT031 BKN037 12/07 A2975
     RMK AO1=

METAR PAGL 282336Z AUTO 16013KT 10SM BKN034 BKN055 OVC065 12/06 A2975
     RMK AO1=

METAR PAGL 282356Z AUTO 16010KT 10SM SCT034 OVC055 12/06 A2976 RMK
     AO1=

METAR PAGL 290016Z AUTO 16008KT 10SM BKN055 12/06 A2976 RMK AO1=

METAR PAGL 290036Z AUTO 17009KT 10SM FEW050 BKN060 12/06 A2976 RMK
     AO1=

METAR PAGL 290056Z AUTO 17009KT 10SM SCT042 OVC060 12/06 A2976 RMK
     AO1=

METAR PAGL 290116Z AUTO 17009KT 10SM SCT033 BKN043 OVC050 12/06 A2976
     RMK AO1=

METAR PAGL 290136Z AUTO 16010KT 10SM OVC037 12/06 A2976 RMK AO1=

METAR PAGL 290156Z AUTO 15012KT 10SM SCT039 OVC050 13/07 A2976 RMK
 AO1=

METAR PAGL 290216Z AUTO 15014KT 10SM OVC050 13/06 A2976 RMK AO1=

METAR PAGL 290236Z AUTO 14013G17KT 10SM BKN048 OVC050 13/07 A2976 RMK
     AO1=

METAR PAGL 290256Z AUTO 14012G15KT 10SM SCT030 BKN041 OVC055 12/07 A2977
     RMK AO1 52003=

METAR PAGL 290316Z AUTO 16016G20KT 8SM FEW018 BKN028 OVC055 12/07 A2977
     RMK AO1 P0002=

METAR PAGL 290336Z AUTO 17016KT 10SM FEW016 BKN050 OVC055 12/07 A2977
     RMK AO1 P0003=


NOAA's National Weather Service
Alaska Aviation Weather Unit
6930 Sand Lake Road
Anchorage, AK 99502-1845
Disclaimer
Credits
Glossary
Privacy Policy
About Us
Career Opportunities
Contact AAWU Internet Services Site last modified: April, 17th 2012